sensor_id;sensor_type;location;lat;lon;timestamp;P1;durP1;ratioP1;P2;durP2;ratioP2
9142;SDS011;54072;47.410;8.446;2023-07-16T00:01:19;2.20;;;1.60;;
9142;SDS011;54072;47.410;8.446;2023-07-16T00:03:46;1.73;;;1.50;;
9142;SDS011;54072;47.410;8.446;2023-07-16T00:06:14;1.93;;;1.70;;
9142;SDS011;54072;47.410;8.446;2023-07-16T00:08:41;3.27;;;1.67;;
9142;SDS011;54072;47.410;8.446;2023-07-16T00:11:09;1.40;;;1.30;;
9142;SDS011;54072;47.410;8.446;2023-07-16T00:13:37;1.57;;;1.47;;
9142;SDS011;54072;47.410;8.446;2023-07-16T00:16:06;1.60;;;1.50;;
9142;SDS011;54072;47.410;8.446;2023-07-16T00:18:33;1.60;;;1.50;;
9142;SDS011;54072;47.410;8.446;2023-07-16T00:21:01;2.17;;;1.53;;
9142;SDS011;54072;47.410;8.446;2023-07-16T00:23:28;1.80;;;1.20;;
9142;SDS011;54072;47.410;8.446;2023-07-16T00:25:56;1.70;;;1.60;;
9142;SDS011;54072;47.410;8.446;2023-07-16T00:28:23;1.80;;;1.53;;
9142;SDS011;54072;47.410;8.446;2023-07-16T00:30:51;2.43;;;1.57;;
9142;SDS011;54072;47.410;8.446;2023-07-16T00:33:20;2.07;;;1.90;;
9142;SDS011;54072;47.410;8.446;2023-07-16T00:35:47;2.83;;;1.60;;
9142;SDS011;54072;47.410;8.446;2023-07-16T00:38:16;2.67;;;1.63;;
9142;SDS011;54072;47.410;8.446;2023-07-16T00:40:44;2.53;;;1.77;;
9142;SDS011;54072;47.410;8.446;2023-07-16T00:43:11;2.93;;;1.80;;
9142;SDS011;54072;47.410;8.446;2023-07-16T00:45:39;2.53;;;1.60;;
9142;SDS011;54072;47.410;8.446;2023-07-16T00:48:07;2.03;;;1.70;;
9142;SDS011;54072;47.410;8.446;2023-07-16T00:50:36;4.10;;;2.10;;
9142;SDS011;54072;47.410;8.446;2023-07-16T00:53:05;1.60;;;1.50;;
9142;SDS011;54072;47.410;8.446;2023-07-16T00:55:33;2.50;;;1.60;;
9142;SDS011;54072;47.410;8.446;2023-07-16T00:58:01;2.57;;;1.63;;
9142;SDS011;54072;47.410;8.446;2023-07-16T01:00:31;1.67;;;1.57;;
9142;SDS011;54072;47.410;8.446;2023-07-16T01:02:59;2.63;;;1.70;;
9142;SDS011;54072;47.410;8.446;2023-07-16T01:05:29;1.70;;;1.60;;
9142;SDS011;54072;47.410;8.446;2023-07-16T01:08:02;1.70;;;1.60;;
9142;SDS011;54072;47.410;8.446;2023-07-16T01:10:31;2.20;;;1.63;;
9142;SDS011;54072;47.410;8.446;2023-07-16T01:12:59;2.73;;;1.80;;
9142;SDS011;54072;47.410;8.446;2023-07-16T01:15:27;1.83;;;1.70;;
9142;SDS011;54072;47.410;8.446;2023-07-16T01:17:55;2.07;;;1.73;;
9142;SDS011;54072;47.410;8.446;2023-07-16T01:20:22;1.70;;;1.60;;
9142;SDS011;54072;47.410;8.446;2023-07-16T01:23:08;1.63;;;1.53;;
9142;SDS011;54072;47.410;8.446;2023-07-16T01:25:44;3.30;;;1.87;;
9142;SDS011;54072;47.410;8.446;2023-07-16T01:28:22;2.47;;;1.87;;
9142;SDS011;54072;47.410;8.446;2023-07-16T01:30:54;2.23;;;1.47;;
9142;SDS011;54072;47.410;8.446;2023-07-16T01:33:23;1.70;;;1.60;;
9142;SDS011;54072;47.410;8.446;2023-07-16T01:35:50;3.00;;;1.60;;
9142;SDS011;54072;47.410;8.446;2023-07-16T01:38:18;3.80;;;1.90;;
9142;SDS011;54072;47.410;8.446;2023-07-16T01:40:47;1.60;;;1.50;;
9142;SDS011;54072;47.410;8.446;2023-07-16T01:43:14;3.03;;;1.90;;
9142;SDS011;54072;47.410;8.446;2023-07-16T01:45:42;3.20;;;2.00;;
9142;SDS011;54072;47.410;8.446;2023-07-16T01:48:14;1.87;;;1.77;;
9142;SDS011;54072;47.410;8.446;2023-07-16T01:50:44;2.17;;;1.63;;
9142;SDS011;54072;47.410;8.446;2023-07-16T01:53:12;1.53;;;1.43;;
9142;SDS011;54072;47.410;8.446;2023-07-16T01:55:39;1.60;;;1.50;;
9142;SDS011;54072;47.410;8.446;2023-07-16T01:58:07;2.13;;;1.93;;
9142;SDS011;54072;47.410;8.446;2023-07-16T02:00:36;3.67;;;2.10;;
9142;SDS011;54072;47.410;8.446;2023-07-16T02:03:03;1.97;;;1.70;;
9142;SDS011;54072;47.410;8.446;2023-07-16T02:05:32;2.10;;;1.90;;
9142;SDS011;54072;47.410;8.446;2023-07-16T02:07:59;3.23;;;1.80;;
9142;SDS011;54072;47.410;8.446;2023-07-16T02:10:27;4.20;;;1.77;;
9142;SDS011;54072;47.410;8.446;2023-07-16T02:12:55;1.93;;;1.60;;
9142;SDS011;54072;47.410;8.446;2023-07-16T02:15:22;2.63;;;1.70;;
9142;SDS011;54072;47.410;8.446;2023-07-16T02:17:50;2.70;;;2.07;;
9142;SDS011;54072;47.410;8.446;2023-07-16T02:20:17;2.00;;;1.80;;
9142;SDS011;54072;47.410;8.446;2023-07-16T02:22:46;2.57;;;1.80;;
9142;SDS011;54072;47.410;8.446;2023-07-16T02:25:14;2.10;;;1.90;;
9142;SDS011;54072;47.410;8.446;2023-07-16T02:27:41;2.00;;;1.90;;
9142;SDS011;54072;47.410;8.446;2023-07-16T02:30:09;2.20;;;1.90;;
9142;SDS011;54072;47.410;8.446;2023-07-16T02:32:37;2.37;;;2.17;;
9142;SDS011;54072;47.410;8.446;2023-07-16T02:35:05;2.40;;;2.13;;
9142;SDS011;54072;47.410;8.446;2023-07-16T02:37:32;2.63;;;1.97;;
9142;SDS011;54072;47.410;8.446;2023-07-16T02:40:01;4.37;;;2.00;;
9142;SDS011;54072;47.410;8.446;2023-07-16T02:42:29;2.10;;;1.83;;
9142;SDS011;54072;47.410;8.446;2023-07-16T02:44:57;3.40;;;2.00;;
9142;SDS011;54072;47.410;8.446;2023-07-16T02:47:24;2.17;;;2.00;;
9142;SDS011;54072;47.410;8.446;2023-07-16T02:49:52;2.97;;;2.10;;
9142;SDS011;54072;47.410;8.446;2023-07-16T02:52:19;2.23;;;2.00;;
9142;SDS011;54072;47.410;8.446;2023-07-16T02:54:47;2.30;;;1.93;;
9142;SDS011;54072;47.410;8.446;2023-07-16T02:57:16;3.03;;;2.30;;
9142;SDS011;54072;47.410;8.446;2023-07-16T02:59:43;2.37;;;2.17;;
9142;SDS011;54072;47.410;8.446;2023-07-16T03:02:11;2.33;;;2.10;;
9142;SDS011;54072;47.410;8.446;2023-07-16T03:04:38;2.50;;;2.20;;
9142;SDS011;54072;47.410;8.446;2023-07-16T03:07:07;4.73;;;2.10;;
9142;SDS011;54072;47.410;8.446;2023-07-16T03:09:35;2.67;;;2.40;;
9142;SDS011;54072;47.410;8.446;2023-07-16T03:12:03;4.50;;;2.40;;
9142;SDS011;54072;47.410;8.446;2023-07-16T03:14:32;2.37;;;2.00;;
9142;SDS011;54072;47.410;8.446;2023-07-16T03:16:59;3.00;;;2.10;;
9142;SDS011;54072;47.410;8.446;2023-07-16T03:19:27;4.17;;;2.20;;
9142;SDS011;54072;47.410;8.446;2023-07-16T03:21:54;3.80;;;2.47;;
9142;SDS011;54072;47.410;8.446;2023-07-16T03:24:22;3.67;;;2.27;;
9142;SDS011;54072;47.410;8.446;2023-07-16T03:26:49;3.50;;;2.30;;
9142;SDS011;54072;47.410;8.446;2023-07-16T03:29:17;3.33;;;2.30;;
9142;SDS011;54072;47.410;8.446;2023-07-16T03:31:46;2.43;;;2.20;;
9142;SDS011;54072;47.410;8.446;2023-07-16T03:34:14;5.93;;;2.90;;
9142;SDS011;54072;47.410;8.446;2023-07-16T03:36:41;3.87;;;2.67;;
9142;SDS011;54072;47.410;8.446;2023-07-16T03:39:09;3.97;;;2.57;;
9142;SDS011;54072;47.410;8.446;2023-07-16T03:41:36;2.40;;;2.20;;
9142;SDS011;54072;47.410;8.446;2023-07-16T03:44:04;2.33;;;2.13;;
9142;SDS011;54072;47.410;8.446;2023-07-16T03:46:31;2.90;;;2.30;;
9142;SDS011;54072;47.410;8.446;2023-07-16T03:49:00;4.90;;;2.43;;
9142;SDS011;54072;47.410;8.446;2023-07-16T03:51:28;5.53;;;2.33;;
9142;SDS011;54072;47.410;8.446;2023-07-16T03:53:55;3.20;;;2.30;;
9142;SDS011;54072;47.410;8.446;2023-07-16T03:56:23;2.57;;;2.23;;
9142;SDS011;54072;47.410;8.446;2023-07-16T03:58:51;3.33;;;2.10;;
9142;SDS011;54072;47.410;8.446;2023-07-16T04:01:18;2.47;;;2.00;;
9142;SDS011;54072;47.410;8.446;2023-07-16T04:03:46;2.40;;;2.20;;
9142;SDS011;54072;47.410;8.446;2023-07-16T04:06:15;3.23;;;2.40;;
9142;SDS011;54072;47.410;8.446;2023-07-16T04:08:42;2.57;;;2.37;;
9142;SDS011;54072;47.410;8.446;2023-07-16T04:11:10;2.80;;;2.23;;
9142;SDS011;54072;47.410;8.446;2023-07-16T04:13:37;3.43;;;2.50;;
9142;SDS011;54072;47.410;8.446;2023-07-16T04:16:05;5.03;;;2.03;;
9142;SDS011;54072;47.410;8.446;2023-07-16T04:18:33;3.03;;;2.10;;
9142;SDS011;54072;47.410;8.446;2023-07-16T04:21:00;3.23;;;2.23;;
9142;SDS011;54072;47.410;8.446;2023-07-16T04:23:29;2.33;;;2.10;;
9142;SDS011;54072;47.410;8.446;2023-07-16T04:25:57;2.03;;;1.80;;
9142;SDS011;54072;47.410;8.446;2023-07-16T04:28:24;3.57;;;2.33;;
9142;SDS011;54072;47.410;8.446;2023-07-16T04:30:52;3.13;;;2.30;;
9142;SDS011;54072;47.410;8.446;2023-07-16T04:33:19;3.10;;;2.90;;
9142;SDS011;54072;47.410;8.446;2023-07-16T04:35:47;5.27;;;2.70;;
9142;SDS011;54072;47.410;8.446;2023-07-16T04:38:15;3.00;;;2.70;;
9142;SDS011;54072;47.410;8.446;2023-07-16T04:40:44;2.97;;;2.67;;
9142;SDS011;54072;47.410;8.446;2023-07-16T04:43:12;6.03;;;2.73;;
9142;SDS011;54072;47.410;8.446;2023-07-16T04:45:39;3.80;;;2.57;;
9142;SDS011;54072;47.410;8.446;2023-07-16T04:48:07;2.87;;;2.57;;
9142;SDS011;54072;47.410;8.446;2023-07-16T04:50:34;3.53;;;2.50;;
9142;SDS011;54072;47.410;8.446;2023-07-16T04:53:02;5.63;;;2.80;;
9142;SDS011;54072;47.410;8.446;2023-07-16T04:55:34;3.20;;;2.30;;
9142;SDS011;54072;47.410;8.446;2023-07-16T04:58:03;3.20;;;2.43;;
9142;SDS011;54072;47.410;8.446;2023-07-16T05:00:31;3.17;;;2.37;;
9142;SDS011;54072;47.410;8.446;2023-07-16T05:02:59;2.37;;;2.20;;
9142;SDS011;54072;47.410;8.446;2023-07-16T05:05:26;2.27;;;2.00;;
9142;SDS011;54072;47.410;8.446;2023-07-16T05:07:54;2.60;;;2.10;;
9142;SDS011;54072;47.410;8.446;2023-07-16T05:10:22;4.10;;;2.30;;
9142;SDS011;54072;47.410;8.446;2023-07-16T05:12:49;2.60;;;2.10;;
9142;SDS011;54072;47.410;8.446;2023-07-16T05:15:18;2.33;;;2.10;;
9142;SDS011;54072;47.410;8.446;2023-07-16T05:17:46;2.40;;;2.20;;
9142;SDS011;54072;47.410;8.446;2023-07-16T05:20:13;2.17;;;2.00;;
9142;SDS011;54072;47.410;8.446;2023-07-16T05:22:41;2.37;;;1.90;;
9142;SDS011;54072;47.410;8.446;2023-07-16T05:25:08;2.70;;;1.90;;
9142;SDS011;54072;47.410;8.446;2023-07-16T05:27:36;2.30;;;2.10;;
9142;SDS011;54072;47.410;8.446;2023-07-16T05:30:04;4.03;;;2.10;;
9142;SDS011;54072;47.410;8.446;2023-07-16T05:32:33;2.07;;;1.90;;
9142;SDS011;54072;47.410;8.446;2023-07-16T05:35:00;2.43;;;2.17;;
9142;SDS011;54072;47.410;8.446;2023-07-16T05:37:28;2.20;;;2.00;;
9142;SDS011;54072;47.410;8.446;2023-07-16T05:39:56;2.90;;;2.00;;
9142;SDS011;54072;47.410;8.446;2023-07-16T05:42:23;2.93;;;2.30;;
9142;SDS011;54072;47.410;8.446;2023-07-16T05:44:51;2.50;;;2.30;;
9142;SDS011;54072;47.410;8.446;2023-07-16T05:47:19;2.10;;;2.00;;
9142;SDS011;54072;47.410;8.446;2023-07-16T05:49:47;2.33;;;2.03;;
9142;SDS011;54072;47.410;8.446;2023-07-16T05:52:15;2.73;;;1.90;;
9142;SDS011;54072;47.410;8.446;2023-07-16T05:54:43;2.30;;;2.10;;
9142;SDS011;54072;47.410;8.446;2023-07-16T05:57:10;2.50;;;2.30;;
9142;SDS011;54072;47.410;8.446;2023-07-16T05:59:38;2.03;;;1.90;;
9142;SDS011;54072;47.410;8.446;2023-07-16T06:02:05;2.17;;;1.97;;
9142;SDS011;54072;47.410;8.446;2023-07-16T06:04:33;2.20;;;1.90;;
9142;SDS011;54072;47.410;8.446;2023-07-16T06:07:02;3.10;;;2.00;;
9142;SDS011;54072;47.410;8.446;2023-07-16T06:09:29;2.13;;;2.03;;
9142;SDS011;54072;47.410;8.446;2023-07-16T06:11:57;2.30;;;1.93;;
9142;SDS011;54072;47.410;8.446;2023-07-16T06:14:25;1.90;;;1.80;;
9142;SDS011;54072;47.410;8.446;2023-07-16T06:16:52;3.20;;;2.37;;
9142;SDS011;54072;47.410;8.446;2023-07-16T06:19:20;2.50;;;2.30;;
9142;SDS011;54072;47.410;8.446;2023-07-16T06:21:47;2.10;;;1.80;;
9142;SDS011;54072;47.410;8.446;2023-07-16T06:24:16;1.87;;;1.70;;
9142;SDS011;54072;47.410;8.446;2023-07-16T06:26:44;1.90;;;1.80;;
9142;SDS011;54072;47.410;8.446;2023-07-16T06:29:13;1.80;;;1.70;;
9142;SDS011;54072;47.410;8.446;2023-07-16T06:31:42;2.73;;;1.97;;
9142;SDS011;54072;47.410;8.446;2023-07-16T06:34:10;1.90;;;1.60;;
9142;SDS011;54072;47.410;8.446;2023-07-16T06:36:37;2.20;;;1.97;;
9142;SDS011;54072;47.410;8.446;2023-07-16T06:39:05;2.57;;;1.80;;
9142;SDS011;54072;47.410;8.446;2023-07-16T06:41:34;2.93;;;1.90;;
9142;SDS011;54072;47.410;8.446;2023-07-16T06:44:01;3.10;;;1.70;;
9142;SDS011;54072;47.410;8.446;2023-07-16T06:46:29;3.70;;;2.10;;
9142;SDS011;54072;47.410;8.446;2023-07-16T06:48:57;3.33;;;1.90;;
9142;SDS011;54072;47.410;8.446;2023-07-16T06:51:24;2.27;;;1.83;;
9142;SDS011;54072;47.410;8.446;2023-07-16T06:53:52;1.80;;;1.70;;
9142;SDS011;54072;47.410;8.446;2023-07-16T06:56:20;2.83;;;2.00;;
9142;SDS011;54072;47.410;8.446;2023-07-16T06:58:49;1.97;;;1.87;;
9142;SDS011;54072;47.410;8.446;2023-07-16T07:01:16;1.73;;;1.63;;
9142;SDS011;54072;47.410;8.446;2023-07-16T07:03:44;2.40;;;1.70;;
9142;SDS011;54072;47.410;8.446;2023-07-16T07:06:12;2.87;;;1.90;;
9142;SDS011;54072;47.410;8.446;2023-07-16T07:08:39;1.90;;;1.80;;
9142;SDS011;54072;47.410;8.446;2023-07-16T07:11:07;3.50;;;2.17;;
9142;SDS011;54072;47.410;8.446;2023-07-16T07:13:34;2.23;;;1.80;;
9142;SDS011;54072;47.410;8.446;2023-07-16T07:16:03;1.87;;;1.70;;
9142;SDS011;54072;47.410;8.446;2023-07-16T07:18:31;2.10;;;1.93;;
9142;SDS011;54072;47.410;8.446;2023-07-16T07:20:59;5.47;;;2.00;;
9142;SDS011;54072;47.410;8.446;2023-07-16T07:23:26;1.90;;;1.80;;
9142;SDS011;54072;47.410;8.446;2023-07-16T07:25:54;1.70;;;1.60;;
9142;SDS011;54072;47.410;8.446;2023-07-16T07:28:21;1.83;;;1.73;;
9142;SDS011;54072;47.410;8.446;2023-07-16T07:30:49;3.47;;;1.97;;
9142;SDS011;54072;47.410;8.446;2023-07-16T07:33:18;2.50;;;1.60;;
9142;SDS011;54072;47.410;8.446;2023-07-16T07:35:45;3.03;;;1.77;;
9142;SDS011;54072;47.410;8.446;2023-07-16T07:38:13;2.00;;;1.80;;
9142;SDS011;54072;47.410;8.446;2023-07-16T07:40:42;2.13;;;1.90;;
9142;SDS011;54072;47.410;8.446;2023-07-16T07:43:09;2.17;;;1.87;;
9142;SDS011;54072;47.410;8.446;2023-07-16T07:45:37;3.30;;;2.07;;
9142;SDS011;54072;47.410;8.446;2023-07-16T07:48:05;2.50;;;1.80;;
9142;SDS011;54072;47.410;8.446;2023-07-16T07:50:33;2.93;;;1.90;;
9142;SDS011;54072;47.410;8.446;2023-07-16T07:53:01;3.57;;;1.70;;
9142;SDS011;54072;47.410;8.446;2023-07-16T07:55:29;3.73;;;1.80;;
9142;SDS011;54072;47.410;8.446;2023-07-16T07:57:57;2.40;;;1.80;;
9142;SDS011;54072;47.410;8.446;2023-07-16T08:00:24;2.80;;;2.10;;
9142;SDS011;54072;47.410;8.446;2023-07-16T08:02:52;2.83;;;1.70;;
9142;SDS011;54072;47.410;8.446;2023-07-16T08:05:19;3.97;;;1.80;;
9142;SDS011;54072;47.410;8.446;2023-07-16T08:07:48;2.53;;;1.80;;
9142;SDS011;54072;47.410;8.446;2023-07-16T08:10:16;2.93;;;1.90;;
9142;SDS011;54072;47.410;8.446;2023-07-16T08:12:44;2.47;;;1.80;;
9142;SDS011;54072;47.410;8.446;2023-07-16T08:15:11;2.90;;;2.03;;
9142;SDS011;54072;47.410;8.446;2023-07-16T08:17:41;2.63;;;1.97;;
9142;SDS011;54072;47.410;8.446;2023-07-16T08:20:09;3.63;;;2.20;;
9142;SDS011;54072;47.410;8.446;2023-07-16T08:22:38;3.57;;;1.90;;
9142;SDS011;54072;47.410;8.446;2023-07-16T08:25:07;3.87;;;1.90;;
9142;SDS011;54072;47.410;8.446;2023-07-16T08:27:35;2.03;;;1.93;;
9142;SDS011;54072;47.410;8.446;2023-07-16T08:30:02;3.37;;;2.27;;
9142;SDS011;54072;47.410;8.446;2023-07-16T08:32:30;3.73;;;1.73;;
9142;SDS011;54072;47.410;8.446;2023-07-16T08:34:57;4.53;;;2.00;;
9142;SDS011;54072;47.410;8.446;2023-07-16T08:37:25;3.40;;;1.77;;
9142;SDS011;54072;47.410;8.446;2023-07-16T08:39:53;2.53;;;1.93;;
9142;SDS011;54072;47.410;8.446;2023-07-16T08:42:22;2.73;;;1.90;;
9142;SDS011;54072;47.410;8.446;2023-07-16T08:44:50;4.27;;;2.03;;
9142;SDS011;54072;47.410;8.446;2023-07-16T08:47:17;2.73;;;2.20;;
9142;SDS011;54072;47.410;8.446;2023-07-16T08:49:49;2.30;;;1.80;;
9142;SDS011;54072;47.410;8.446;2023-07-16T08:52:19;2.90;;;2.20;;
9142;SDS011;54072;47.410;8.446;2023-07-16T08:54:46;1.92;;;1.70;;
9142;SDS011;54072;47.410;8.446;2023-07-16T08:57:14;2.20;;;1.80;;
9142;SDS011;54072;47.410;8.446;2023-07-16T08:59:43;2.83;;;2.00;;
9142;SDS011;54072;47.410;8.446;2023-07-16T09:02:11;2.90;;;2.00;;
9142;SDS011;54072;47.410;8.446;2023-07-16T09:04:39;3.65;;;2.10;;
9142;SDS011;54072;47.410;8.446;2023-07-16T09:07:07;2.50;;;2.10;;
9142;SDS011;54072;47.410;8.446;2023-07-16T09:09:34;3.17;;;2.08;;
9142;SDS011;54072;47.410;8.446;2023-07-16T09:12:02;2.33;;;1.95;;
9142;SDS011;54072;47.410;8.446;2023-07-16T09:14:29;4.47;;;1.83;;
9142;SDS011;54072;47.410;8.446;2023-07-16T09:16:58;2.72;;;1.80;;
9142;SDS011;54072;47.410;8.446;2023-07-16T09:19:26;2.45;;;2.08;;
9142;SDS011;54072;47.410;8.446;2023-07-16T09:21:53;4.72;;;2.40;;
9142;SDS011;54072;47.410;8.446;2023-07-16T09:24:21;4.55;;;2.42;;
9142;SDS011;54072;47.410;8.446;2023-07-16T09:26:48;3.22;;;1.90;;
9142;SDS011;54072;47.410;8.446;2023-07-16T09:29:16;3.33;;;2.10;;
9142;SDS011;54072;47.410;8.446;2023-07-16T09:31:53;3.30;;;1.80;;
9142;SDS011;54072;47.410;8.446;2023-07-16T09:34:23;2.30;;;1.95;;
9142;SDS011;54072;47.410;8.446;2023-07-16T09:36:51;4.43;;;1.77;;
9142;SDS011;54072;47.410;8.446;2023-07-16T09:39:18;2.28;;;1.83;;
9142;SDS011;54072;47.410;8.446;2023-07-16T09:41:46;1.88;;;1.55;;
9142;SDS011;54072;47.410;8.446;2023-07-16T09:44:15;4.32;;;2.08;;
9142;SDS011;54072;47.410;8.446;2023-07-16T09:46:42;3.78;;;2.08;;
9142;SDS011;54072;47.410;8.446;2023-07-16T09:49:10;3.97;;;2.00;;
9142;SDS011;54072;47.410;8.446;2023-07-16T09:51:39;2.33;;;1.95;;
9142;SDS011;54072;47.410;8.446;2023-07-16T09:54:07;4.65;;;2.35;;
9142;SDS011;54072;47.410;8.446;2023-07-16T09:56:36;2.80;;;2.20;;
9142;SDS011;54072;47.410;8.446;2023-07-16T09:59:05;5.90;;;2.38;;
9142;SDS011;54072;47.410;8.446;2023-07-16T10:01:36;3.88;;;2.03;;
9142;SDS011;54072;47.410;8.446;2023-07-16T10:04:14;4.38;;;2.10;;
9142;SDS011;54072;47.410;8.446;2023-07-16T10:06:54;3.50;;;2.28;;
9142;SDS011;54072;47.410;8.446;2023-07-16T10:09:32;3.15;;;2.15;;
9142;SDS011;54072;47.410;8.446;2023-07-16T10:12:15;3.60;;;2.10;;
9142;SDS011;54072;47.410;8.446;2023-07-16T10:14:45;3.10;;;2.20;;
9142;SDS011;54072;47.410;8.446;2023-07-16T10:17:16;3.42;;;2.10;;
9142;SDS011;54072;47.410;8.446;2023-07-16T10:19:47;2.67;;;2.05;;
9142;SDS011;54072;47.410;8.446;2023-07-16T10:22:17;2.78;;;2.00;;
9142;SDS011;54072;47.410;8.446;2023-07-16T10:24:44;2.10;;;1.90;;
9142;SDS011;54072;47.410;8.446;2023-07-16T10:27:26;2.85;;;2.25;;
9142;SDS011;54072;47.410;8.446;2023-07-16T10:29:54;2.65;;;2.40;;
9142;SDS011;54072;47.410;8.446;2023-07-16T10:32:22;4.43;;;2.40;;
9142;SDS011;54072;47.410;8.446;2023-07-16T10:34:52;2.75;;;2.05;;
9142;SDS011;54072;47.410;8.446;2023-07-16T10:37:22;3.58;;;2.15;;
9142;SDS011;54072;47.410;8.446;2023-07-16T10:39:50;3.53;;;2.25;;
9142;SDS011;54072;47.410;8.446;2023-07-16T10:42:18;4.18;;;2.20;;
9142;SDS011;54072;47.410;8.446;2023-07-16T10:44:48;3.08;;;2.22;;
9142;SDS011;54072;47.410;8.446;2023-07-16T10:47:19;2.85;;;1.98;;
9142;SDS011;54072;47.410;8.446;2023-07-16T10:49:50;2.25;;;2.05;;
9142;SDS011;54072;47.410;8.446;2023-07-16T10:52:18;2.55;;;2.10;;
9142;SDS011;54072;47.410;8.446;2023-07-16T10:54:47;3.05;;;2.10;;
9142;SDS011;54072;47.410;8.446;2023-07-16T10:57:16;4.15;;;2.05;;
9142;SDS011;54072;47.410;8.446;2023-07-16T10:59:42;2.45;;;2.20;;
9142;SDS011;54072;47.410;8.446;2023-07-16T11:02:12;2.60;;;2.30;;
9142;SDS011;54072;47.410;8.446;2023-07-16T11:04:40;3.78;;;2.72;;
9142;SDS011;54072;47.410;8.446;2023-07-16T11:07:08;3.53;;;2.25;;
9142;SDS011;54072;47.410;8.446;2023-07-16T11:09:40;4.47;;;2.22;;
9142;SDS011;54072;47.410;8.446;2023-07-16T11:12:11;2.53;;;2.13;;
9142;SDS011;54072;47.410;8.446;2023-07-16T11:14:39;3.72;;;2.70;;
9142;SDS011;54072;47.410;8.446;2023-07-16T11:17:09;5.78;;;3.15;;
9142;SDS011;54072;47.410;8.446;2023-07-16T11:19:37;3.85;;;2.30;;
9142;SDS011;54072;47.410;8.446;2023-07-16T11:22:05;5.60;;;2.30;;
9142;SDS011;54072;47.410;8.446;2023-07-16T11:24:36;3.53;;;2.30;;
9142;SDS011;54072;47.410;8.446;2023-07-16T11:27:04;5.55;;;2.88;;
9142;SDS011;54072;47.410;8.446;2023-07-16T11:29:35;3.25;;;2.05;;
9142;SDS011;54072;47.410;8.446;2023-07-16T11:32:03;2.13;;;1.92;;
9142;SDS011;54072;47.410;8.446;2023-07-16T11:34:31;3.63;;;2.22;;
9142;SDS011;54072;47.410;8.446;2023-07-16T11:37:08;4.38;;;2.50;;
9142;SDS011;54072;47.410;8.446;2023-07-16T11:39:36;3.17;;;2.42;;
9142;SDS011;54072;47.410;8.446;2023-07-16T11:42:04;2.97;;;2.10;;
9142;SDS011;54072;47.410;8.446;2023-07-16T11:44:33;3.38;;;2.13;;
9142;SDS011;54072;47.410;8.446;2023-07-16T11:47:02;4.57;;;2.30;;
9142;SDS011;54072;47.410;8.446;2023-07-16T11:49:30;4.20;;;2.22;;
9142;SDS011;54072;47.410;8.446;2023-07-16T11:51:58;2.70;;;2.50;;
9142;SDS011;54072;47.410;8.446;2023-07-16T11:54:26;2.38;;;2.03;;
9142;SDS011;54072;47.410;8.446;2023-07-16T11:56:53;2.80;;;2.58;;
9142;SDS011;54072;47.410;8.446;2023-07-16T11:59:20;4.35;;;2.40;;
9142;SDS011;54072;47.410;8.446;2023-07-16T12:01:48;2.95;;;2.25;;
9142;SDS011;54072;47.410;8.446;2023-07-16T12:04:17;2.92;;;2.10;;
9142;SDS011;54072;47.410;8.446;2023-07-16T12:06:45;2.95;;;2.65;;
9142;SDS011;54072;47.410;8.446;2023-07-16T12:09:13;2.42;;;2.22;;
9142;SDS011;54072;47.410;8.446;2023-07-16T12:11:40;2.30;;;2.10;;
9142;SDS011;54072;47.410;8.446;2023-07-16T12:14:08;3.60;;;2.35;;
9142;SDS011;54072;47.410;8.446;2023-07-16T12:16:36;2.75;;;2.30;;
9142;SDS011;54072;47.410;8.446;2023-07-16T12:19:05;3.10;;;2.58;;
9142;SDS011;54072;47.410;8.446;2023-07-16T12:21:34;3.00;;;2.63;;
9142;SDS011;54072;47.410;8.446;2023-07-16T12:24:01;2.28;;;2.10;;
9142;SDS011;54072;47.410;8.446;2023-07-16T12:26:29;3.55;;;2.60;;
9142;SDS011;54072;47.410;8.446;2023-07-16T12:28:56;7.63;;;2.60;;
9142;SDS011;54072;47.410;8.446;2023-07-16T12:31:24;2.72;;;2.40;;
9142;SDS011;54072;47.410;8.446;2023-07-16T12:33:52;2.83;;;2.20;;
9142;SDS011;54072;47.410;8.446;2023-07-16T12:36:19;3.25;;;2.38;;
9142;SDS011;54072;47.410;8.446;2023-07-16T12:38:48;4.32;;;2.33;;
9142;SDS011;54072;47.410;8.446;2023-07-16T12:41:16;2.60;;;2.22;;
9142;SDS011;54072;47.410;8.446;2023-07-16T12:43:43;3.50;;;2.80;;
9142;SDS011;54072;47.410;8.446;2023-07-16T12:46:11;3.65;;;2.80;;
9142;SDS011;54072;47.410;8.446;2023-07-16T12:48:38;5.13;;;2.60;;
9142;SDS011;54072;47.410;8.446;2023-07-16T12:51:09;2.83;;;2.58;;
9142;SDS011;54072;47.410;8.446;2023-07-16T12:53:36;3.05;;;2.70;;
9142;SDS011;54072;47.410;8.446;2023-07-16T12:56:06;2.67;;;2.47;;
9142;SDS011;54072;47.410;8.446;2023-07-16T12:58:33;2.60;;;2.40;;
9142;SDS011;54072;47.410;8.446;2023-07-16T13:01:01;3.90;;;2.30;;
9142;SDS011;54072;47.410;8.446;2023-07-16T13:03:28;4.55;;;2.60;;
9142;SDS011;54072;47.410;8.446;2023-07-16T13:05:56;2.80;;;2.40;;
9142;SDS011;54072;47.410;8.446;2023-07-16T13:08:23;2.50;;;2.30;;
9142;SDS011;54072;47.410;8.446;2023-07-16T13:10:51;3.85;;;2.28;;
9142;SDS011;54072;47.410;8.446;2023-07-16T13:13:20;3.78;;;2.40;;
9142;SDS011;54072;47.410;8.446;2023-07-16T13:15:48;4.03;;;2.30;;
9142;SDS011;54072;47.410;8.446;2023-07-16T13:18:15;3.05;;;2.30;;
9142;SDS011;54072;47.410;8.446;2023-07-16T13:20:44;2.85;;;2.50;;
9142;SDS011;54072;47.410;8.446;2023-07-16T13:23:12;4.05;;;2.50;;
9142;SDS011;54072;47.410;8.446;2023-07-16T13:25:39;2.80;;;2.50;;
9142;SDS011;54072;47.410;8.446;2023-07-16T13:28:07;3.15;;;2.45;;
9142;SDS011;54072;47.410;8.446;2023-07-16T13:30:36;3.42;;;2.50;;
9142;SDS011;54072;47.410;8.446;2023-07-16T13:33:04;2.65;;;2.35;;
9142;SDS011;54072;47.410;8.446;2023-07-16T13:35:31;4.00;;;2.53;;
9142;SDS011;54072;47.410;8.446;2023-07-16T13:37:59;3.83;;;2.35;;
9142;SDS011;54072;47.410;8.446;2023-07-16T13:40:27;4.72;;;2.50;;
9142;SDS011;54072;47.410;8.446;2023-07-16T13:42:55;3.83;;;2.58;;
9142;SDS011;54072;47.410;8.446;2023-07-16T13:45:22;4.00;;;2.83;;
9142;SDS011;54072;47.410;8.446;2023-07-16T13:47:51;4.43;;;2.40;;
9142;SDS011;54072;47.410;8.446;2023-07-16T13:50:20;4.82;;;2.50;;
9142;SDS011;54072;47.410;8.446;2023-07-16T13:52:48;3.72;;;2.28;;
9142;SDS011;54072;47.410;8.446;2023-07-16T13:55:15;6.95;;;2.58;;
9142;SDS011;54072;47.410;8.446;2023-07-16T13:57:43;2.63;;;2.40;;
9142;SDS011;54072;47.410;8.446;2023-07-16T14:00:12;4.72;;;2.53;;
9142;SDS011;54072;47.410;8.446;2023-07-16T14:02:42;4.95;;;2.75;;
9142;SDS011;54072;47.410;8.446;2023-07-16T14:05:11;4.35;;;2.67;;
9142;SDS011;54072;47.410;8.446;2023-07-16T14:07:38;3.00;;;2.53;;
9142;SDS011;54072;47.410;8.446;2023-07-16T14:10:06;3.17;;;2.50;;
9142;SDS011;54072;47.410;8.446;2023-07-16T14:12:34;3.28;;;2.65;;
9142;SDS011;54072;47.410;8.446;2023-07-16T14:15:01;4.20;;;2.63;;
9142;SDS011;54072;47.410;8.446;2023-07-16T14:17:30;5.18;;;2.72;;
9142;SDS011;54072;47.410;8.446;2023-07-16T14:19:57;4.05;;;2.45;;
9142;SDS011;54072;47.410;8.446;2023-07-16T14:22:26;4.03;;;3.00;;
9142;SDS011;54072;47.410;8.446;2023-07-16T14:24:54;2.90;;;2.70;;
9142;SDS011;54072;47.410;8.446;2023-07-16T14:27:21;4.32;;;3.10;;
9142;SDS011;54072;47.410;8.446;2023-07-16T14:29:49;3.08;;;2.60;;
9142;SDS011;54072;47.410;8.446;2023-07-16T14:32:24;5.00;;;2.75;;
9142;SDS011;54072;47.410;8.446;2023-07-16T14:34:52;2.85;;;2.63;;
9142;SDS011;54072;47.410;8.446;2023-07-16T14:37:19;2.75;;;2.55;;
9142;SDS011;54072;47.410;8.446;2023-07-16T14:39:48;3.08;;;2.75;;
9142;SDS011;54072;47.410;8.446;2023-07-16T14:42:16;3.30;;;2.65;;
9142;SDS011;54072;47.410;8.446;2023-07-16T14:44:44;3.97;;;2.78;;
9142;SDS011;54072;47.410;8.446;2023-07-16T14:47:11;5.20;;;2.67;;
9142;SDS011;54072;47.410;8.446;2023-07-16T14:49:39;3.90;;;2.80;;
9142;SDS011;54072;47.410;8.446;2023-07-16T14:52:06;2.80;;;2.50;;
9142;SDS011;54072;47.410;8.446;2023-07-16T14:54:34;3.28;;;2.70;;
9142;SDS011;54072;47.410;8.446;2023-07-16T14:57:03;3.67;;;2.75;;
9142;SDS011;54072;47.410;8.446;2023-07-16T14:59:31;5.55;;;2.90;;
9142;SDS011;54072;47.410;8.446;2023-07-16T15:02:00;4.50;;;2.72;;
9142;SDS011;54072;47.410;8.446;2023-07-16T15:04:28;3.08;;;2.83;;
9142;SDS011;54072;47.410;8.446;2023-07-16T15:06:55;4.00;;;2.72;;